Terminal Aerodrome Forecast
Issued by NWS

Home | Current Version | Previous Version | Text Only | Print | Product List | Glossary On
Versions: 1 2 3 4 5 6 7 8 9 10 11 12 13
000
FTUS46 KSEW 211300 AAA
TAFPAE
TAF AMD
KPAE 211329Z 2113/2212 02005KT P6SM BKN005
     FM211700 34008KT P6SM SCT020 OVC035
     FM212000 35010KT P6SM VCSH BKN020 OVC030
     FM220100 34012KT P6SM -SHRA OVC020
     FM220600 33008KT P6SM VCSH SCT015 OVC025=

USA.gov is the U.S. government's official web portal to all federal, state and local government web resources and services.